createdAt,value
2017-12-29T00:00:23.544Z,3.32
2017-12-29T00:01:23.513Z,3.32
2017-12-29T00:02:23.494Z,3.31
2017-12-29T00:03:23.461Z,3.28
2017-12-29T00:04:23.445Z,3.29
2017-12-29T00:05:23.430Z,3.35
2017-12-29T00:06:23.404Z,3.35
2017-12-29T00:07:23.382Z,3.32
2017-12-29T00:08:23.349Z,3.36
2017-12-29T00:09:23.328Z,3.33
2017-12-29T00:10:23.309Z,3.35
2017-12-29T00:11:23.287Z,3.36
2017-12-29T00:12:23.262Z,3.39
2017-12-29T00:13:23.240Z,3.35
2017-12-29T00:14:23.216Z,3.43
2017-12-29T00:15:23.197Z,3.36
2017-12-29T00:16:23.171Z,3.32
2017-12-29T00:17:23.148Z,3.24
2017-12-29T00:18:23.133Z,3.29
2017-12-29T00:19:23.110Z,3.26
2017-12-29T00:20:23.082Z,3.23
2017-12-29T00:21:23.061Z,3.23
2017-12-29T00:22:23.032Z,3.24
2017-12-29T00:23:23.009Z,3.29
2017-12-29T00:24:22.988Z,3.31
2017-12-29T00:25:22.969Z,3.20
2017-12-29T00:26:22.948Z,3.20
2017-12-29T00:27:22.928Z,3.17
2017-12-29T00:28:22.896Z,3.15
2017-12-29T00:29:22.888Z,3.11
2017-12-29T00:30:22.856Z,3.10
2017-12-29T00:31:22.829Z,3.11
2017-12-29T00:32:22.808Z,3.13
2017-12-29T00:33:22.788Z,3.13
2017-12-29T00:34:22.762Z,3.15
2017-12-29T00:35:22.740Z,3.05
2017-12-29T00:36:22.722Z,3.05
2017-12-29T00:37:22.693Z,3.10
2017-12-29T00:38:22.672Z,3.05
2017-12-29T00:39:22.649Z,3.08
2017-12-29T00:40:22.647Z,3.02
2017-12-29T00:41:22.604Z,3.02
2017-12-29T00:42:22.582Z,2.99
2017-12-29T00:43:22.571Z,2.99
2017-12-29T00:44:22.540Z,2.96
2017-12-29T00:45:22.524Z,2.99
2017-12-29T00:46:22.498Z,3.02
2017-12-29T00:47:22.467Z,2.95
2017-12-29T00:48:22.449Z,3.06
2017-12-29T00:49:22.432Z,2.97
2017-12-29T00:50:22.407Z,2.96
2017-12-29T00:51:22.382Z,2.89
2017-12-29T00:52:22.359Z,2.96
2017-12-29T00:53:22.335Z,3.00
2017-12-29T00:54:22.311Z,2.93
2017-12-29T00:55:22.292Z,2.95
2017-12-29T00:56:22.268Z,2.92
2017-12-29T00:57:22.243Z,2.87
2017-12-29T00:58:22.218Z,2.92
2017-12-29T00:59:22.197Z,2.99
2017-12-29T01:00:22.174Z,3.00
2017-12-29T01:01:22.152Z,3.02
2017-12-29T01:02:22.126Z,2.96
2017-12-29T01:03:22.104Z,2.96
2017-12-29T01:04:22.089Z,2.95
2017-12-29T01:05:22.062Z,2.97
2017-12-29T01:06:22.037Z,2.95
2017-12-29T01:07:22.020Z,2.99
2017-12-29T01:08:21.992Z,3.02
2017-12-29T01:09:21.975Z,3.00
2017-12-29T01:10:21.953Z,2.93
2017-12-29T01:11:21.924Z,2.89
2017-12-29T01:12:21.910Z,2.92
2017-12-29T01:13:21.882Z,2.97
2017-12-29T01:14:21.861Z,2.93
2017-12-29T01:15:21.833Z,2.90
2017-12-29T01:16:21.808Z,2.97
2017-12-29T01:17:21.789Z,2.92
2017-12-29T01:18:21.780Z,2.99
2017-12-29T01:19:21.739Z,2.93
2017-12-29T01:20:21.722Z,2.90
2017-12-29T01:21:21.702Z,3.00
2017-12-29T01:22:21.675Z,2.93
2017-12-29T01:23:21.653Z,3.00
2017-12-29T01:24:21.629Z,2.93
2017-12-29T01:25:21.608Z,2.92
2017-12-29T01:26:21.581Z,2.93
2017-12-29T01:27:21.563Z,2.92
2017-12-29T01:28:21.541Z,2.92
2017-12-29T01:29:21.515Z,2.90
2017-12-29T01:30:21.491Z,2.90
2017-12-29T01:31:21.477Z,2.93
2017-12-29T01:32:21.451Z,2.90
2017-12-29T01:33:21.429Z,2.95
2017-12-29T01:34:21.405Z,2.89
2017-12-29T01:35:21.378Z,2.97
2017-12-29T01:36:21.358Z,2.97
2017-12-29T01:37:21.336Z,2.93
2017-12-29T01:38:21.323Z,2.85
2017-12-29T01:39:21.289Z,2.84
2017-12-29T01:40:21.269Z,2.90
2017-12-29T01:41:21.250Z,2.82
2017-12-29T01:42:21.221Z,2.75
2017-12-29T01:43:21.201Z,2.85
2017-12-29T01:44:21.176Z,2.82
2017-12-29T01:45:21.154Z,2.90
2017-12-29T01:46:21.129Z,2.82
2017-12-29T01:47:21.113Z,2.78
2017-12-29T01:48:21.083Z,2.81
2017-12-29T01:49:21.058Z,2.75
2017-12-29T01:50:21.039Z,2.81
2017-12-29T01:51:21.017Z,2.64
2017-12-29T01:52:20.998Z,2.74
2017-12-29T01:53:20.967Z,2.71
2017-12-29T01:54:20.944Z,2.67
2017-12-29T01:55:20.921Z,2.69
2017-12-29T01:56:20.902Z,2.71
2017-12-29T01:57:20.879Z,2.61
2017-12-29T01:58:20.856Z,2.56
2017-12-29T01:59:20.832Z,2.59
2017-12-29T02:00:20.809Z,2.56
2017-12-29T02:01:20.786Z,2.56
2017-12-29T02:02:20.762Z,2.59
2017-12-29T02:03:20.738Z,2.56
2017-12-29T02:04:20.715Z,2.49
2017-12-29T02:05:20.693Z,2.54
2017-12-29T02:06:20.668Z,2.41
2017-12-29T02:07:20.651Z,2.49
2017-12-29T02:08:20.628Z,2.43
2017-12-29T02:09:20.601Z,2.53
2017-12-29T02:10:20.582Z,2.56
2017-12-29T02:11:20.558Z,2.52
2017-12-29T02:12:20.543Z,2.49
2017-12-29T02:13:20.515Z,2.49
2017-12-29T02:14:20.489Z,2.49
2017-12-29T02:15:20.465Z,2.43
2017-12-29T02:16:20.448Z,2.46
2017-12-29T02:17:20.419Z,2.42
2017-12-29T02:18:20.397Z,2.46
2017-12-29T02:19:20.373Z,2.42
2017-12-29T02:20:20.360Z,2.35
2017-12-29T02:21:20.329Z,2.34
2017-12-29T02:22:20.309Z,2.35
2017-12-29T02:23:20.286Z,2.35
2017-12-29T02:24:20.259Z,2.34
2017-12-29T02:25:20.238Z,2.28
2017-12-29T02:26:20.216Z,2.35
2017-12-29T02:27:20.191Z,2.31
2017-12-29T02:28:20.167Z,2.23
2017-12-29T02:29:20.150Z,2.30
2017-12-29T02:30:20.126Z,2.25
2017-12-29T02:31:20.100Z,2.28
2017-12-29T02:32:20.081Z,2.21
2017-12-29T02:33:20.055Z,2.16
2017-12-29T02:34:20.029Z,2.20
2017-12-29T02:35:20.008Z,2.21
2017-12-29T02:36:19.983Z,2.27
2017-12-29T02:37:19.959Z,2.18
2017-12-29T02:38:19.947Z,2.18
2017-12-29T02:39:19.912Z,2.25
2017-12-29T02:40:19.899Z,2.14
2017-12-29T02:41:19.869Z,2.21
2017-12-29T02:42:19.847Z,2.18
2017-12-29T02:43:19.829Z,2.17
2017-12-29T02:44:19.798Z,2.18
2017-12-29T02:45:19.782Z,2.14
2017-12-29T02:46:19.754Z,2.02
2017-12-29T02:47:19.732Z,1.99
2017-12-29T02:48:19.706Z,2.12
2017-12-29T02:49:19.682Z,2.14
2017-12-29T02:50:19.659Z,2.09
2017-12-29T02:51:19.635Z,2.12
2017-12-29T02:52:19.619Z,2.05
2017-12-29T02:53:19.600Z,2.06
2017-12-29T02:54:19.565Z,2.12
2017-12-29T02:55:19.547Z,2.09
2017-12-29T02:56:19.518Z,2.07
2017-12-29T02:57:19.499Z,2.02
2017-12-29T02:58:19.476Z,2.06
2017-12-29T02:59:19.452Z,2.06
2017-12-29T03:00:19.428Z,2.05
2017-12-29T03:01:19.407Z,2.03
2017-12-29T03:02:19.377Z,1.98
2017-12-29T03:03:19.362Z,2.02
2017-12-29T03:04:19.333Z,2.00
2017-12-29T03:05:19.318Z,2.02
2017-12-29T03:06:19.305Z,2.00
2017-12-29T03:07:19.267Z,1.98
2017-12-29T03:08:19.247Z,1.99
2017-12-29T03:09:19.220Z,1.98
2017-12-29T03:10:19.198Z,1.99
2017-12-29T03:11:19.176Z,1.95
2017-12-29T03:12:19.148Z,2.03
2017-12-29T03:13:19.126Z,1.98
2017-12-29T03:14:19.104Z,2.00
2017-12-29T03:15:19.079Z,1.87
2017-12-29T03:16:19.056Z,1.98
2017-12-29T03:17:19.037Z,1.88
2017-12-29T03:18:19.014Z,2.02
2017-12-29T03:19:18.988Z,1.87
2017-12-29T03:20:18.965Z,1.93
2017-12-29T03:21:18.951Z,1.88
2017-12-29T03:22:18.919Z,1.98
2017-12-29T03:23:18.896Z,1.83
2017-12-29T03:24:18.872Z,1.87
2017-12-29T03:25:18.851Z,2.02
2017-12-29T03:26:18.827Z,1.87
2017-12-29T03:27:18.803Z,1.88
2017-12-29T03:28:18.778Z,1.91
2017-12-29T03:29:18.761Z,1.87
2017-12-29T03:30:18.746Z,1.88
2017-12-29T03:31:18.712Z,1.91
2017-12-29T03:32:18.685Z,1.88
2017-12-29T03:33:18.663Z,1.88
2017-12-29T03:34:18.638Z,1.93
2017-12-29T03:35:18.620Z,1.88
2017-12-29T03:36:18.594Z,1.86
2017-12-29T03:37:18.572Z,1.86
2017-12-29T03:38:18.548Z,1.91
2017-12-29T03:39:18.523Z,1.81
2017-12-29T03:40:18.501Z,1.86
2017-12-29T03:41:18.475Z,1.84
2017-12-29T03:42:18.451Z,1.84
2017-12-29T03:43:18.429Z,1.88
2017-12-29T03:44:18.408Z,1.86
2017-12-29T03:45:18.384Z,1.84
2017-12-29T03:46:18.365Z,1.84
2017-12-29T03:47:18.339Z,1.86
2017-12-29T03:48:18.317Z,1.90
2017-12-29T03:49:18.292Z,1.81
2017-12-29T03:50:18.269Z,1.86
2017-12-29T03:51:18.249Z,1.83
2017-12-29T03:52:18.221Z,1.76
2017-12-29T03:53:18.212Z,1.77
2017-12-29T03:54:18.177Z,1.81
2017-12-29T03:55:18.150Z,1.84
2017-12-29T03:56:18.134Z,1.81
2017-12-29T03:57:18.109Z,1.84
2017-12-29T03:58:18.091Z,1.81
2017-12-29T03:59:18.062Z,1.79
2017-12-29T04:00:18.040Z,1.79
2017-12-29T04:01:18.016Z,1.77
2017-12-29T04:02:17.992Z,1.77
2017-12-29T04:03:17.969Z,1.77
2017-12-29T04:04:17.948Z,1.77
2017-12-29T04:05:17.920Z,1.79
2017-12-29T04:06:17.900Z,1.81
2017-12-29T04:07:17.877Z,1.77
2017-12-29T04:08:17.852Z,1.79
2017-12-29T04:09:17.828Z,1.79
2017-12-29T04:10:17.809Z,1.79
2017-12-29T04:11:17.784Z,1.73
2017-12-29T04:12:17.758Z,1.77
2017-12-29T04:13:17.734Z,1.63
2017-12-29T04:14:17.713Z,1.76
2017-12-29T04:15:17.692Z,1.66
2017-12-29T04:16:17.666Z,1.79
2017-12-29T04:17:17.644Z,1.73
2017-12-29T04:18:17.631Z,1.79
2017-12-29T04:19:17.599Z,1.76
2017-12-29T04:20:17.590Z,1.76
2017-12-29T04:21:17.558Z,1.80
2017-12-29T04:22:17.541Z,1.77
2017-12-29T04:23:17.512Z,1.77
2017-12-29T04:24:17.481Z,1.66
2017-12-29T04:25:17.458Z,1.69
2017-12-29T04:26:17.435Z,1.63
2017-12-29T04:27:17.412Z,1.65
2017-12-29T04:28:17.392Z,1.69
2017-12-29T04:29:17.364Z,1.72
2017-12-29T04:30:17.342Z,1.70
2017-12-29T04:31:17.320Z,1.69
2017-12-29T04:32:17.297Z,1.60
2017-12-29T04:33:17.270Z,1.63
2017-12-29T04:34:17.244Z,1.59
2017-12-29T04:35:17.229Z,1.63
2017-12-29T04:36:17.205Z,1.54
2017-12-29T04:37:17.179Z,1.58
2017-12-29T04:38:17.157Z,1.59
2017-12-29T04:39:17.134Z,1.59
2017-12-29T04:40:17.110Z,1.51
2017-12-29T04:41:17.089Z,1.63
2017-12-29T04:42:17.066Z,1.55
2017-12-29T04:43:17.040Z,1.51
2017-12-29T04:44:17.014Z,1.58
2017-12-29T04:45:17.002Z,1.52
2017-12-29T04:46:16.969Z,1.62
2017-12-29T04:47:16.951Z,1.52
2017-12-29T04:48:16.926Z,1.62
2017-12-29T04:49:16.905Z,1.62
2017-12-29T04:50:16.879Z,1.58
2017-12-29T04:51:16.861Z,1.55
2017-12-29T04:52:16.835Z,1.55
2017-12-29T04:53:16.809Z,1.58
2017-12-29T04:54:16.787Z,1.48
2017-12-29T04:55:16.761Z,1.47
2017-12-29T04:56:16.737Z,1.55
2017-12-29T04:57:16.719Z,1.48
2017-12-29T04:58:16.689Z,1.48
2017-12-29T04:59:16.670Z,1.50
2017-12-29T05:00:16.649Z,1.48
2017-12-29T05:01:16.624Z,1.47
2017-12-29T05:02:16.601Z,1.47
2017-12-29T05:03:16.579Z,1.50
2017-12-29T05:04:16.560Z,1.51
2017-12-29T05:05:16.530Z,1.42
2017-12-29T05:06:16.506Z,1.45
2017-12-29T05:07:16.483Z,1.47
2017-12-29T05:08:16.466Z,1.45
2017-12-29T05:09:16.440Z,1.45
2017-12-29T05:10:16.414Z,1.45
2017-12-29T05:11:16.389Z,1.48
2017-12-29T05:12:16.370Z,1.47
2017-12-29T05:13:16.348Z,1.44
2017-12-29T05:14:16.322Z,1.45
2017-12-29T05:15:16.295Z,1.44
2017-12-29T05:16:16.281Z,1.44
2017-12-29T05:17:16.252Z,1.42
2017-12-29T05:18:16.229Z,1.41
2017-12-29T05:19:16.204Z,1.48
2017-12-29T05:20:16.183Z,1.44
2017-12-29T05:21:16.159Z,1.41
2017-12-29T05:22:16.135Z,1.36
2017-12-29T05:23:16.108Z,1.33
2017-12-29T05:24:16.088Z,1.41
2017-12-29T05:25:16.065Z,1.29
2017-12-29T05:26:16.040Z,1.36
2017-12-29T05:27:16.017Z,1.32
2017-12-29T05:28:15.993Z,1.30
2017-12-29T05:29:15.975Z,1.32
2017-12-29T05:30:15.948Z,1.27
2017-12-29T05:31:15.921Z,1.29
2017-12-29T05:32:15.902Z,1.26
2017-12-29T05:33:15.881Z,1.33
2017-12-29T05:34:15.856Z,1.29
2017-12-29T05:35:15.834Z,1.24
2017-12-29T05:36:15.812Z,1.23
2017-12-29T05:37:15.784Z,1.32
2017-12-29T05:38:15.759Z,1.24
2017-12-29T05:39:15.736Z,1.32
2017-12-29T05:40:15.713Z,1.30
2017-12-29T05:41:15.689Z,1.30
2017-12-29T05:42:15.666Z,1.32
2017-12-29T05:43:15.646Z,1.36
2017-12-29T05:44:15.618Z,1.26
2017-12-29T05:45:15.594Z,1.27
2017-12-29T05:46:15.571Z,1.30
2017-12-29T05:47:15.547Z,1.29
2017-12-29T05:48:15.528Z,1.20
2017-12-29T05:49:15.505Z,1.24
2017-12-29T05:50:15.479Z,1.24
2017-12-29T05:51:15.459Z,1.24
2017-12-29T05:52:15.436Z,1.23
2017-12-29T05:53:15.407Z,1.20
2017-12-29T05:54:15.388Z,1.22
2017-12-29T05:55:15.359Z,1.26
2017-12-29T05:56:15.336Z,1.30
2017-12-29T05:57:15.316Z,1.20
2017-12-29T05:58:15.290Z,1.29
2017-12-29T05:59:15.271Z,1.24
2017-12-29T06:00:15.245Z,1.30
2017-12-29T06:01:15.223Z,1.22
2017-12-29T06:02:15.194Z,1.18
2017-12-29T06:03:15.175Z,1.23
2017-12-29T06:04:15.152Z,1.26
2017-12-29T06:05:15.132Z,1.20
2017-12-29T06:06:15.107Z,1.33
2017-12-29T06:07:15.082Z,1.33
2017-12-29T06:08:15.056Z,1.30
2017-12-29T06:09:15.029Z,1.22
2017-12-29T06:10:15.007Z,1.22
2017-12-29T06:11:14.982Z,1.18
2017-12-29T06:12:14.959Z,1.09
2017-12-29T06:13:14.938Z,1.12
2017-12-29T06:14:14.911Z,1.12
2017-12-29T06:15:14.891Z,1.23
2017-12-29T06:16:14.870Z,1.15
2017-12-29T06:17:14.842Z,1.26
2017-12-29T06:18:14.823Z,1.24
2017-12-29T06:19:14.799Z,1.24
2017-12-29T06:20:14.777Z,1.20
2017-12-29T06:21:14.750Z,1.24
2017-12-29T06:22:14.731Z,1.22
2017-12-29T06:23:14.699Z,1.30
2017-12-29T06:24:14.684Z,1.30
2017-12-29T06:25:14.650Z,1.29
2017-12-29T06:26:14.628Z,1.18
2017-12-29T06:27:14.612Z,1.15
2017-12-29T06:28:14.581Z,1.29
2017-12-29T06:29:14.558Z,1.29
2017-12-29T06:30:14.538Z,1.23
2017-12-29T06:31:14.512Z,1.11
2017-12-29T06:32:14.488Z,1.22
2017-12-29T06:33:14.465Z,1.20
2017-12-29T06:34:14.438Z,1.30
2017-12-29T06:35:14.419Z,1.23
2017-12-29T06:36:14.394Z,1.08
2017-12-29T06:37:14.370Z,1.12
2017-12-29T06:38:14.346Z,1.12
2017-12-29T06:39:14.323Z,1.14
2017-12-29T06:40:14.299Z,1.23
2017-12-29T06:41:14.275Z,1.23
2017-12-29T06:42:14.250Z,1.20
2017-12-29T06:43:14.228Z,1.23
2017-12-29T06:44:14.205Z,1.20
2017-12-29T06:45:14.179Z,1.18
2017-12-29T06:46:14.155Z,1.22
2017-12-29T06:47:14.132Z,1.15
2017-12-29T06:48:14.108Z,1.12
2017-12-29T06:49:14.085Z,1.12
2017-12-29T06:50:14.063Z,1.08
2017-12-29T06:51:14.041Z,1.12
2017-12-29T06:52:14.015Z,1.14
2017-12-29T06:53:13.990Z,1.15
2017-12-29T06:54:13.971Z,1.12
2017-12-29T06:55:13.944Z,1.12
2017-12-29T06:56:13.919Z,1.08
2017-12-29T06:57:13.895Z,1.08
2017-12-29T06:58:13.876Z,1.14
2017-12-29T06:59:13.847Z,1.08
2017-12-29T07:00:13.834Z,1.14
2017-12-29T07:01:13.807Z,1.16
2017-12-29T07:02:13.781Z,1.08
2017-12-29T07:03:13.758Z,1.08
2017-12-29T07:04:13.732Z,1.05
2017-12-29T07:05:13.709Z,1.06
2017-12-29T07:06:13.689Z,1.02
2017-12-29T07:07:13.660Z,1.06
2017-12-29T07:08:13.639Z,1.06
2017-12-29T07:09:13.617Z,1.16
2017-12-29T07:10:13.588Z,1.09
2017-12-29T07:11:13.569Z,1.08
2017-12-29T07:12:13.546Z,1.11
2017-12-29T07:13:13.519Z,1.08
2017-12-29T07:14:13.501Z,1.06
2017-12-29T07:15:13.468Z,1.06
2017-12-29T07:16:13.445Z,1.12
2017-12-29T07:17:13.429Z,1.08
2017-12-29T07:18:13.447Z,1.11
2017-12-29T07:19:13.382Z,1.00
2017-12-29T07:20:13.352Z,1.08
2017-12-29T07:21:13.330Z,1.08
2017-12-29T07:22:13.308Z,1.05
2017-12-29T07:23:13.284Z,1.11
2017-12-29T07:24:13.259Z,1.09
2017-12-29T07:25:13.245Z,1.09
2017-12-29T07:26:13.210Z,1.02
2017-12-29T07:27:13.190Z,1.04
2017-12-29T07:28:13.165Z,1.05
2017-12-29T07:29:13.141Z,1.05
2017-12-29T07:30:13.117Z,1.11
2017-12-29T07:31:13.093Z,1.11
2017-12-29T07:32:13.070Z,1.00
2017-12-29T07:33:13.045Z,1.04
2017-12-29T07:34:13.026Z,0.98
2017-12-29T07:35:13.001Z,0.97
2017-12-29T07:36:12.973Z,1.04
2017-12-29T07:37:12.949Z,1.04
2017-12-29T07:38:12.927Z,1.04
2017-12-29T07:39:12.903Z,1.02
2017-12-29T07:40:12.881Z,1.00
2017-12-29T07:41:12.855Z,1.04
2017-12-29T07:42:12.830Z,1.09
2017-12-29T07:43:12.813Z,1.09
2017-12-29T07:44:12.783Z,1.00
2017-12-29T07:45:12.762Z,1.06
2017-12-29T07:46:12.741Z,0.97
2017-12-29T07:47:12.712Z,1.08
2017-12-29T07:48:12.688Z,1.06
2017-12-29T07:49:12.664Z,1.14
2017-12-29T07:50:12.642Z,1.06
2017-12-29T07:51:12.617Z,1.11
2017-12-29T07:52:12.592Z,1.02
2017-12-29T07:53:12.577Z,1.11
2017-12-29T07:54:12.547Z,1.00
2017-12-29T07:55:12.533Z,1.08
2017-12-29T07:56:12.499Z,1.08
2017-12-29T07:57:12.483Z,1.08
2017-12-29T07:58:12.449Z,1.12
2017-12-29T07:59:12.426Z,1.11
2017-12-29T08:00:12.404Z,1.09
2017-12-29T08:01:12.380Z,1.14
2017-12-29T08:02:12.359Z,1.15
2017-12-29T08:03:12.333Z,1.11
2017-12-29T08:04:12.309Z,1.09
2017-12-29T08:05:12.289Z,1.09
2017-12-29T08:06:12.263Z,1.11
2017-12-29T08:07:12.239Z,1.09
2017-12-29T08:08:12.227Z,1.09
2017-12-29T08:09:12.191Z,1.14
2017-12-29T08:10:12.173Z,1.15
2017-12-29T08:11:12.147Z,1.14
2017-12-29T08:12:12.123Z,1.12
2017-12-29T08:13:12.102Z,1.18
2017-12-29T08:14:12.077Z,1.15
2017-12-29T08:15:12.049Z,1.24
2017-12-29T08:16:12.030Z,1.27
2017-12-29T08:17:12.006Z,1.14
2017-12-29T08:18:11.989Z,1.22
2017-12-29T08:19:11.958Z,1.22
2017-12-29T08:20:11.934Z,1.16
2017-12-29T08:21:11.910Z,1.20
2017-12-29T08:22:11.892Z,1.22
2017-12-29T08:23:11.863Z,1.23
2017-12-29T08:24:11.849Z,1.24
2017-12-29T08:25:11.818Z,1.18
2017-12-29T08:26:11.794Z,1.23
2017-12-29T08:27:11.768Z,1.23
2017-12-29T08:28:14.194Z,1.29
2017-12-29T08:29:11.722Z,1.29
2017-12-29T08:30:11.700Z,1.27
2017-12-29T08:31:11.678Z,1.32
2017-12-29T08:32:11.653Z,1.24
2017-12-29T08:33:11.629Z,1.30
2017-12-29T08:34:11.606Z,1.29
2017-12-29T08:35:11.582Z,1.33
2017-12-29T08:36:11.566Z,1.30
2017-12-29T08:37:11.533Z,1.26
2017-12-29T08:38:11.514Z,1.42
2017-12-29T08:39:11.489Z,1.45
2017-12-29T08:40:11.468Z,1.29
2017-12-29T08:41:11.443Z,1.24
2017-12-29T08:42:11.422Z,1.32
2017-12-29T08:43:11.394Z,1.29
2017-12-29T08:44:11.369Z,1.40
2017-12-29T08:45:11.346Z,1.33
2017-12-29T08:46:11.320Z,1.33
2017-12-29T08:47:11.302Z,1.37
2017-12-29T08:48:11.280Z,1.40
2017-12-29T08:49:11.255Z,1.45
2017-12-29T08:50:11.231Z,1.47
2017-12-29T08:51:11.210Z,1.37
2017-12-29T08:52:11.183Z,1.41
2017-12-29T08:53:11.203Z,1.47
2017-12-29T08:54:11.136Z,1.48
2017-12-29T08:55:11.120Z,1.41
2017-12-29T08:56:11.090Z,1.50
2017-12-29T08:57:11.071Z,1.48
2017-12-29T08:58:11.052Z,1.50
2017-12-29T08:59:11.031Z,1.48
2017-12-29T09:00:10.997Z,1.50
2017-12-29T09:01:10.973Z,1.48
2017-12-29T09:02:10.951Z,1.51
2017-12-29T09:03:10.927Z,1.59
2017-12-29T09:04:10.908Z,1.60
2017-12-29T09:05:10.882Z,1.52
2017-12-29T09:06:10.861Z,1.55
2017-12-29T09:07:10.846Z,1.58
2017-12-29T09:08:10.810Z,1.60
2017-12-29T09:09:10.789Z,1.59
2017-12-29T09:10:10.782Z,1.60
2017-12-29T09:11:10.743Z,1.62
2017-12-29T09:12:10.719Z,1.58
2017-12-29T09:13:10.696Z,1.59
2017-12-29T09:14:10.675Z,1.59
2017-12-29T09:15:10.649Z,1.62
2017-12-29T09:16:10.659Z,1.62
2017-12-29T09:17:10.613Z,1.59
2017-12-29T09:18:10.591Z,1.69
2017-12-29T09:19:10.560Z,1.66
2017-12-29T09:20:10.543Z,1.70
2017-12-29T09:21:10.512Z,1.70
2017-12-29T09:22:10.492Z,1.72
2017-12-29T09:23:10.472Z,1.72
2017-12-29T09:24:10.444Z,1.62
2017-12-29T09:25:10.419Z,1.65
2017-12-29T09:26:10.405Z,1.66
2017-12-29T09:27:10.371Z,1.66
2017-12-29T09:28:10.349Z,1.76
2017-12-29T09:29:10.329Z,1.77
2017-12-29T09:30:10.307Z,1.87
2017-12-29T09:31:10.279Z,1.84
2017-12-29T09:32:10.260Z,1.88
2017-12-29T09:33:10.246Z,1.86
2017-12-29T09:34:10.209Z,1.88
2017-12-29T09:35:10.188Z,1.88
2017-12-29T09:36:10.256Z,1.84
2017-12-29T09:37:10.143Z,1.88
2017-12-29T09:38:10.116Z,1.84
2017-12-29T09:39:10.096Z,1.98
2017-12-29T09:40:10.069Z,2.00
2017-12-29T09:41:10.051Z,2.03
2017-12-29T09:42:10.027Z,1.99
2017-12-29T09:43:10.001Z,2.00
2017-12-29T09:44:09.983Z,2.02
2017-12-29T09:45:09.963Z,1.95
2017-12-29T09:46:09.933Z,2.10
2017-12-29T09:47:09.919Z,2.12
2017-12-29T09:48:09.889Z,2.12
2017-12-29T09:49:09.862Z,2.10
2017-12-29T09:50:09.848Z,2.20
2017-12-29T09:51:09.813Z,2.18
2017-12-29T09:52:09.791Z,2.18
2017-12-29T09:53:09.766Z,2.25
2017-12-29T09:54:09.749Z,2.23
2017-12-29T09:55:09.720Z,2.23
2017-12-29T09:56:09.705Z,2.27
2017-12-29T09:57:09.678Z,2.35
2017-12-29T09:58:09.651Z,2.36
2017-12-29T09:59:09.628Z,2.34
2017-12-29T10:00:09.609Z,2.28
2017-12-29T10:01:09.584Z,2.45
2017-12-29T10:02:09.569Z,2.36
2017-12-29T10:03:09.547Z,2.45
2017-12-29T10:04:09.520Z,2.45
2017-12-29T10:05:09.501Z,2.46
2017-12-29T10:06:09.473Z,2.48
2017-12-29T10:07:09.451Z,2.49
2017-12-29T10:08:09.425Z,2.52
2017-12-29T10:09:09.400Z,2.59
2017-12-29T10:10:09.384Z,2.45
2017-12-29T10:11:09.357Z,2.45
2017-12-29T10:12:09.340Z,2.54
2017-12-29T10:13:09.308Z,2.53
2017-12-29T10:14:09.285Z,2.63
2017-12-29T10:15:09.269Z,2.69
2017-12-29T10:16:09.239Z,2.74
2017-12-29T10:17:09.224Z,2.69
2017-12-29T10:18:09.189Z,2.72
2017-12-29T10:19:09.170Z,2.74
2017-12-29T10:20:09.159Z,2.67
2017-12-29T10:21:09.122Z,2.75
2017-12-29T10:22:09.103Z,2.79
2017-12-29T10:23:09.075Z,2.78
2017-12-29T10:24:09.053Z,2.81
2017-12-29T10:25:09.040Z,2.82
2017-12-29T10:26:09.327Z,2.85
2017-12-29T10:27:08.996Z,2.81
2017-12-29T10:28:08.962Z,2.85
2017-12-29T10:29:09.024Z,2.97
2017-12-29T10:30:08.930Z,2.95
2017-12-29T10:31:08.896Z,2.87
2017-12-29T10:32:08.873Z,2.97
2017-12-29T10:33:08.850Z,3.00
2017-12-29T10:34:08.829Z,3.00
2017-12-29T10:35:08.801Z,3.02
2017-12-29T10:36:08.777Z,3.00
2017-12-29T10:37:08.760Z,3.00
2017-12-29T10:38:08.728Z,2.99
2017-12-29T10:39:08.711Z,3.03
2017-12-29T10:40:08.688Z,3.08
2017-12-29T10:41:08.663Z,3.00
2017-12-29T10:42:08.642Z,3.03
2017-12-29T10:43:08.614Z,3.13
2017-12-29T10:44:08.600Z,3.08
2017-12-29T10:45:08.573Z,3.14
2017-12-29T10:46:08.544Z,3.20
2017-12-29T10:47:08.529Z,3.18
2017-12-29T10:48:08.503Z,3.31
2017-12-29T10:49:08.480Z,3.32
2017-12-29T10:50:08.454Z,3.26
2017-12-29T10:51:08.433Z,3.40
2017-12-29T10:52:08.409Z,3.36
2017-12-29T10:53:08.386Z,3.35
2017-12-29T10:54:08.375Z,3.48
2017-12-29T10:55:08.346Z,3.47
2017-12-29T10:56:08.321Z,3.52
2017-12-29T10:57:08.300Z,3.54
2017-12-29T10:58:08.278Z,3.54
2017-12-29T10:59:08.251Z,3.57
2017-12-29T11:00:08.246Z,3.55
2017-12-29T11:01:08.205Z,3.55
2017-12-29T11:02:08.187Z,3.60
2017-12-29T11:03:08.158Z,3.51
2017-12-29T11:04:08.143Z,3.65
2017-12-29T11:05:08.116Z,3.62
2017-12-29T11:06:08.090Z,3.62
2017-12-29T11:07:08.078Z,3.69
2017-12-29T11:08:08.055Z,3.66
2017-12-29T11:09:08.030Z,3.60
2017-12-29T11:10:08.008Z,3.72
2017-12-29T11:11:07.982Z,3.62
2017-12-29T11:12:07.956Z,3.73
2017-12-29T11:13:07.933Z,3.78
2017-12-29T11:14:07.911Z,3.73
2017-12-29T11:15:07.886Z,3.75
2017-12-29T11:16:07.861Z,3.83
2017-12-29T11:17:07.846Z,3.76
2017-12-29T11:18:07.822Z,3.86
2017-12-29T11:19:07.802Z,3.94
2017-12-29T11:20:07.774Z,3.90
2017-12-29T11:21:07.751Z,3.98
2017-12-29T11:22:07.731Z,3.94
2017-12-29T11:23:07.708Z,3.91
2017-12-29T11:24:07.691Z,4.00
2017-12-29T11:25:07.665Z,4.05
2017-12-29T11:26:07.685Z,4.08
2017-12-29T11:27:07.627Z,4.04
2017-12-29T11:28:07.637Z,4.06
2017-12-29T11:29:07.579Z,4.02
2017-12-29T11:30:07.549Z,4.04
2017-12-29T11:31:07.524Z,4.05
2017-12-29T11:32:07.505Z,4.04
2017-12-29T11:33:07.488Z,4.11
2017-12-29T11:34:07.458Z,4.08
2017-12-29T11:35:07.436Z,4.04
2017-12-29T11:36:07.420Z,4.05
2017-12-29T11:37:07.395Z,4.05
2017-12-29T11:38:07.377Z,4.14
2017-12-29T11:39:07.344Z,4.06
2017-12-29T11:40:07.331Z,4.06
2017-12-29T11:41:07.305Z,3.97
2017-12-29T11:42:07.278Z,3.91
2017-12-29T11:43:07.260Z,3.93
2017-12-29T11:44:07.234Z,3.93
2017-12-29T11:45:07.212Z,3.93
2017-12-29T11:46:07.193Z,3.96
2017-12-29T11:47:07.166Z,3.94
2017-12-29T11:48:07.140Z,3.93
2017-12-29T11:49:07.122Z,4.02
2017-12-29T11:50:07.101Z,4.00
2017-12-29T11:51:07.078Z,4.00
2017-12-29T11:52:07.053Z,4.00
2017-12-29T11:53:07.036Z,4.02
2017-12-29T11:54:07.012Z,4.05
2017-12-29T11:55:06.991Z,4.05
2017-12-29T11:56:06.966Z,4.09
2017-12-29T11:57:06.941Z,4.08
2017-12-29T11:58:06.918Z,4.11
2017-12-29T11:59:06.896Z,4.16
2017-12-29T12:00:06.872Z,4.12
2017-12-29T12:01:06.851Z,4.05
2017-12-29T12:02:06.829Z,4.09
2017-12-29T12:03:06.807Z,4.11
2017-12-29T12:04:06.782Z,4.09
2017-12-29T12:05:06.763Z,4.00
2017-12-29T12:06:06.751Z,4.05
2017-12-29T12:07:06.718Z,4.11
2017-12-29T12:08:06.698Z,4.12
2017-12-29T12:09:06.681Z,4.16
2017-12-29T12:10:06.648Z,4.08
2017-12-29T12:11:06.623Z,4.11
2017-12-29T12:12:06.608Z,4.04
2017-12-29T12:13:06.577Z,4.05
2017-12-29T12:14:06.561Z,4.12
2017-12-29T12:15:06.536Z,4.04
2017-12-29T12:16:06.516Z,4.04
2017-12-29T12:17:06.496Z,4.16
2017-12-29T12:18:06.469Z,4.12
2017-12-29T12:19:06.448Z,4.05
2017-12-29T12:20:06.426Z,4.00
2017-12-29T12:21:06.398Z,4.14
2017-12-29T12:22:06.383Z,4.05
2017-12-29T12:23:06.362Z,4.16
2017-12-29T12:24:06.336Z,4.12
2017-12-29T12:25:06.312Z,4.15
2017-12-29T12:26:06.300Z,4.22
2017-12-29T12:27:06.268Z,4.18
2017-12-29T12:28:06.243Z,4.20
2017-12-29T12:29:06.231Z,4.11
2017-12-29T12:30:06.202Z,4.09
2017-12-29T12:31:06.177Z,4.14
2017-12-29T12:32:06.154Z,4.14
2017-12-29T12:33:06.132Z,4.09
2017-12-29T12:34:06.109Z,4.09
2017-12-29T12:35:06.093Z,4.22
2017-12-29T12:36:06.068Z,4.08
2017-12-29T12:37:06.047Z,4.09
2017-12-29T12:38:06.031Z,4.16
2017-12-29T12:39:06.006Z,4.14
2017-12-29T12:40:05.979Z,4.15
2017-12-29T12:41:05.966Z,4.04
2017-12-29T12:42:05.934Z,4.04
2017-12-29T12:43:05.908Z,4.08
2017-12-29T12:44:05.890Z,4.05
2017-12-29T12:45:05.875Z,3.97
2017-12-29T12:46:05.840Z,3.86
2017-12-29T12:47:05.819Z,3.96
2017-12-29T12:48:05.798Z,3.91
2017-12-29T12:49:05.784Z,3.93
2017-12-29T12:50:05.752Z,3.83
2017-12-29T12:51:05.730Z,3.75
2017-12-29T12:52:05.708Z,3.79
2017-12-29T12:53:05.690Z,3.75
2017-12-29T12:54:05.666Z,3.83
2017-12-29T12:55:05.641Z,3.72
2017-12-29T12:56:05.621Z,3.69
2017-12-29T12:57:05.608Z,3.79
2017-12-29T12:58:05.580Z,3.80
2017-12-29T12:59:05.562Z,3.73
2017-12-29T13:00:05.532Z,3.72
2017-12-29T13:01:05.504Z,3.76
2017-12-29T13:02:05.483Z,3.78
2017-12-29T13:03:05.458Z,3.72
2017-12-29T13:04:05.439Z,3.70
2017-12-29T13:05:05.425Z,3.73
2017-12-29T13:06:05.394Z,3.76
2017-12-29T13:07:05.380Z,3.72
2017-12-29T13:08:05.347Z,3.73
2017-12-29T13:09:05.329Z,3.73
2017-12-29T13:10:05.304Z,3.80
2017-12-29T13:11:05.286Z,3.80
2017-12-29T13:12:05.261Z,3.75
2017-12-29T13:13:05.240Z,3.80
2017-12-29T13:14:05.218Z,3.75
2017-12-29T13:15:05.211Z,3.78
2017-12-29T13:16:05.174Z,3.76
2017-12-29T13:17:05.147Z,3.80
2017-12-29T13:18:05.124Z,3.83